Brownsville, TX

3:18 AM CDT on September 22, 2014 (GMT -0500)
Brownsville-South Padre I International | Change Station
CLOSE
Current Station
Airport
Location: Brownsville,
Elevation: 20 ft
Nearby Weather Stations

Elev 20 ft 25.91 °N, 97.42 °W | Updated 6 minutes ago

Overcast
Overcast
79 °F
Feels Like 79 °F
N
13
Wind Variable Wind from NE
Gusts 20 mph

Today
High -- | Low -- °F
--% Chance of Precip.
Yesterday
High -- | Low -- °F
Precip. -- in
7:18 AM 7:26 PM
Waning Crescent, 3% visible
Pressure 29.96 in
Visibility 6.0 miles
Clouds Mostly Cloudy 900 ft
Mostly Cloudy 1400 ft
Overcast 2300 ft
Dew Point 75 °F
Humidity 89%
Rainfall 0.06 in
Snow Depth Not available.
UV 0 out of 12
Pollen 9.10 out of 12
Ozone Good
PM2.5 Good
Flu Activity Not available.
SPECI KBRO 220812Z 05011G17KT 6SM -RA BR BKN009 BKN014 OVC023 26/24 A2996 RMK AO2 RAB04 CIG 006V010 P0000

More Conditions Fewer Conditions

Pressure 29.96 in
Visibility 6.0 miles
Clouds Mostly Cloudy 900 ft
Mostly Cloudy 1400 ft
Overcast 2300 ft
Dew Point 75 °F
Humidity 89%
Rainfall 0.06 in
Snow Depth Not available.
UV 0 out of 12
Pollen 9.10 out of 12
Ozone Good
PM2.5 Good
Flu Activity Not available.
SPECI KBRO 220812Z 05011G17KT 6SM -RA BR BKN009 BKN014 OVC023 26/24 A2996 RMK AO2 RAB04 CIG 006V010 P0000

More Conditions Fewer Conditions

Nowcast | as of 2:47 am CDT on September 22, 2014

Through 4 am...scattered showers will continue moving west southwest at 15 to 20 mph over portions of Cameron County. Rainfall rates associated with these showers will reach up around a quarter inch an hour.

×

10-Day Weather Forecast

Almanac

Astronomy

Sep. 22, 2014 Rise Set
Actual Time 7:18 AM CDT 7:26 PM CDT
Civil Twilight 6:55 AM CDT 7:49 PM CDT
Nautical Twilight 6:28 AM CDT 8:15 PM CDT
Astronomical Twilight 6:01 AM CDT 8:42 PM CDT
Moon 5:54 AM CDT 6:30 PM CDT
Length of Visible Light 12h 53m
Length of Day
12h 07m
Tomorrow will be 1m 31s shorter.
Waning Crescent, 3% of the Moon is Illuminated
Today
Waning Crescent
Sep 24
New
Oct 1
First Quarter
Oct 8
Full
Oct 15
Last Quarter

Today's Extremes

State Highs State Lows

Community

WunderPhotos

Upload Photos

1,755,395 photos uploaded!

Nearby

Air Quality

  Air Quality AQ Index Pollutant
Yesterday Good
OZONE
Yesterday Good
PM2.5
Current Good
OZONE
Current Good
PM2.5
Monday Good
PM10
Monday Good
OZONE
Tuesday Good
PM10
Tuesday Good
OZONE

Snow Depth

Station Depth Elevation
No new snow has been reported.

Earthquake Activity

City Distance Mag. Time & Date
No recent earthquake activity has been reported nearby.
Minimum magnitude displayed is 2.5.

Coastal Water Temperatures

Place Temperature
Port Isabel, TX 84.9 °F
Baffin Bay Point of Rocks, TX 82.9 °F
South Bird Island, TX 82.0 °F
Malaquite Beach (Corpus Christi), TX 82.9 °F
Packery Channel, TX 82.0 °F

Nearby Weather Stations